Terminal Aerodrome Forecast
Issued by NWS Grand Forks, ND

Home | Current Version | Previous Version | Graphics & Text | Print | Product List | Glossary On
Versions: 1 2 3 4 5 6 7 8 9 10 11 12 13 14 15
728
FTUS43 KFGF 222320
TAFFAR
TAF
KFAR 222320Z 2300/2324 08006KT P6SM SCT250
     FM230900 11008KT P6SM BKN250
     FM231700 13012KT P6SM VCTS BKN090CB
     FM232200 18009KT P6SM VCTS BKN090CB=

USA.gov is the U.S. government's official web portal to all federal, state and local government web resources and services.